Time;durP1;ratioP1;P1;durP2;ratioP2;P2;SDS_P1;SDS_P2;PMS_P1;PMS_P2;Temp;Humidity;BMP_temperature;BMP_pressure;BME280_temperature;BME280_humidity;BME280_pressure;Samples;Min_cycle;Max_cycle;Signal;HPM_P1;HPM_P2
2023/10/13 00:01:54;;;;;;;4.68;3.33;;;;;;;16.18;100.00;101127.22;5033605;28;20068;-82
2023/10/13 00:04:24;;;;;;;9.82;4.30;;;;;;;16.19;100.00;101130.66;5033682;28;20053;-82
2023/10/13 00:06:53;;;;;;;9.07;5.13;;;;;;;16.16;100.00;101118.53;5032950;28;20029;-82
2023/10/13 00:09:24;;;;;;;7.90;4.03;;;;;;;16.18;100.00;101119.34;5033467;28;20044;-82
2023/10/13 00:11:55;;;;;;;7.68;4.05;;;;;;;16.19;100.00;101114.97;5015981;28;20095;-82
2023/10/13 00:14:30;;;;;;;4.65;3.20;;;;;;;16.19;100.00;101109.72;5033071;28;20032;-82
2023/10/13 00:17:03;;;;;;;5.37;3.40;;;;;;;16.19;100.00;101113.22;5034172;28;20427;-82
2023/10/13 00:19:46;;;;;;;4.55;3.00;;;;;;;16.19;100.00;101110.59;5033443;28;20397;-82
2023/10/13 00:22:15;;;;;;;3.72;2.88;;;;;;;16.19;100.00;101102.75;5033101;28;20661;-82
2023/10/13 00:24:42;;;;;;;3.92;2.65;;;;;;;16.13;100.00;101089.00;5033447;28;20545;-82
2023/10/13 00:27:30;;;;;;;2.50;2.30;;;;;;;16.16;100.00;101100.22;5032392;28;20462;-82
2023/10/13 00:32:54;;;;;;;5.30;3.45;;;;;;;16.14;100.00;101095.94;5010325;28;20040;-82
2023/10/13 00:35:35;;;;;;;6.50;3.45;;;;;;;16.12;100.00;101090.75;5032701;28;20057;-82
2023/10/13 00:38:12;;;;;;;5.90;3.45;;;;;;;16.12;100.00;101088.13;5033487;28;20403;-82
2023/10/13 00:45:54;;;;;;;4.47;3.05;;;;;;;16.10;100.00;101078.63;5033282;28;20096;-82
2023/10/13 00:48:34;;;;;;;3.20;2.50;;;;;;;16.06;100.00;101081.34;5032266;28;20075;-82
2023/10/13 00:51:06;;;;;;;6.57;3.57;;;;;;;16.04;100.00;101080.53;5033131;28;20095;-82
2023/10/13 00:53:44;;;;;;;4.28;2.95;;;;;;;16.04;100.00;101080.53;5033161;28;20033;-82
2023/10/13 00:56:19;;;;;;;4.68;3.10;;;;;;;16.01;100.00;101075.41;5032246;28;20025;-81
2023/10/13 00:58:52;;;;;;;4.28;3.00;;;;;;;16.01;100.00;101074.56;5033203;28;20172;-82
2023/10/13 01:01:18;;;;;;;3.22;2.70;;;;;;;16.02;100.00;101063.19;5032405;28;20112;-82
2023/10/13 01:03:55;;;;;;;6.03;3.10;;;;;;;16.00;100.00;101059.75;5031755;28;20498;-82
2023/10/13 01:06:25;;;;;;;3.75;2.70;;;;;;;16.00;100.00;101052.78;5032800;28;20026;-82
2023/10/13 01:08:59;;;;;;;5.40;3.08;;;;;;;15.99;100.00;101055.41;5033014;28;20030;-82
2023/10/13 01:11:31;;;;;;;4.05;2.75;;;;;;;15.98;100.00;101054.59;5032268;28;20490;-82
2023/10/13 01:13:57;;;;;;;4.38;2.90;;;;;;;15.98;100.00;101053.75;5032416;28;20029;-82
2023/10/13 01:16:26;;;;;;;4.20;2.80;;;;;;;15.97;100.00;101052.03;5031708;28;20024;-82
2023/10/13 01:18:59;;;;;;;4.18;2.80;;;;;;;15.96;100.00;101045.06;5032855;28;20054;-82
2023/10/13 01:21:27;;;;;;;3.60;2.80;;;;;;;15.95;100.00;101040.75;5032781;28;20485;-82
2023/10/13 01:23:53;;;;;;;4.55;2.80;;;;;;;15.93;100.00;101030.31;5031759;28;20079;-82
2023/10/13 01:26:23;;;;;;;3.67;2.40;;;;;;;15.92;100.00;101030.38;5032617;28;20025;-82
2023/10/13 01:28:48;;;;;;;2.70;2.50;;;;;;;15.94;100.00;101031.19;5032864;28;20033;-82
2023/10/13 01:31:24;;;;;;;2.23;2.00;;;;;;;15.94;100.00;101025.94;5031053;28;20071;-82
2023/10/13 01:33:54;;;;;;;6.28;2.90;;;;;;;15.92;100.00;101022.53;5032982;28;20030;-82
2023/10/13 01:36:20;;;;;;;2.60;2.40;;;;;;;15.92;100.00;101017.28;5032544;28;20124;-82
2023/10/13 01:38:46;;;;;;;2.65;2.03;;;;;;;15.90;100.00;101007.72;5031982;28;20462;-82
2023/10/13 01:41:12;;;;;;;1.88;1.77;;;;;;;15.88;100.00;100996.44;5032346;28;20025;-82
2023/10/13 01:43:38;;;;;;;2.00;1.90;;;;;;;15.92;100.00;100999.84;5032796;28;20103;-82
2023/10/13 01:46:03;;;;;;;1.80;1.70;;;;;;;15.88;100.00;100993.84;5031661;28;20458;-82
2023/10/13 01:48:32;;;;;;;1.70;1.60;;;;;;;15.90;100.00;100996.41;5032348;28;20029;-82
2023/10/13 01:51:00;;;;;;;2.67;2.10;;;;;;;15.88;100.00;100993.00;5032645;28;20048;-82
2023/10/13 01:53:28;;;;;;;2.65;2.00;;;;;;;15.88;100.00;100988.59;5031608;28;20052;-82
2023/10/13 01:55:56;;;;;;;1.80;1.70;;;;;;;15.88;100.00;100980.75;5032471;28;20025;-82
2023/10/13 01:58:22;;;;;;;1.92;1.75;;;;;;;15.87;100.00;100979.06;5031460;28;20047;-82
2023/10/13 02:00:48;;;;;;;1.97;1.80;;;;;;;15.88;100.00;100974.69;5032357;28;20049;-82
2023/10/13 02:03:15;;;;;;;1.95;1.80;;;;;;;15.86;100.00;100968.63;5031951;28;20769;-82
2023/10/13 02:05:57;;;;;;;1.80;1.67;;;;;;;15.85;100.00;100959.06;5031438;28;20025;-82
2023/10/13 02:10:54;;;;;;;1.70;1.60;;;;;;;15.87;100.00;100958.13;5032591;28;20040;-82
2023/10/13 02:13:22;;;;;;;1.50;1.40;;;;;;;15.87;100.00;100963.38;5031223;28;20030;-81
2023/10/13 02:15:48;;;;;;;1.80;1.50;;;;;;;15.88;100.00;100964.22;5032316;28;20032;-81
2023/10/13 02:18:26;;;;;;;3.47;2.40;;;;;;;15.87;100.00;100954.66;5031874;28;20018;-82
2023/10/13 02:20:55;;;;;;;3.05;2.20;;;;;;;15.88;100.00;100954.56;5031471;28;20034;-82
2023/10/13 02:23:30;;;;;;;2.30;2.10;;;;;;;15.88;100.00;100958.97;5032130;28;20116;-82
2023/10/13 02:26:13;;;;;;;2.85;2.15;;;;;;;15.88;100.00;100965.03;5032046;28;20022;-82
2023/10/13 02:28:39;;;;;;;3.63;2.50;;;;;;;15.89;100.00;100955.44;5031726;28;20024;-82
2023/10/13 02:31:05;;;;;;;4.57;2.87;;;;;;;15.89;100.00;100961.53;5031722;28;20037;-82
2023/10/13 02:33:30;;;;;;;5.73;3.50;;;;;;;15.89;100.00;100942.38;5031047;28;20030;-82
2023/10/13 02:35:57;;;;;;;5.40;3.80;;;;;;;15.91;100.00;100943.16;5033903;28;20025;-82
2023/10/13 02:39:07;;;;;;;5.30;3.30;;;;;;;15.93;100.00;100940.47;5035473;28;20287;-82
2023/10/13 02:41:28;;;;;;;6.75;3.45;;;;;;;15.93;100.00;100925.63;5026226;28;20390;-82
2023/10/13 02:43:55;;;;;;;4.15;2.90;;;;;;;15.93;100.00;100914.31;5035334;28;20034;-82
2023/10/13 02:46:28;;;;;;;5.43;3.30;;;;;;;15.92;100.00;100912.59;5035191;28;20429;-82
2023/10/13 02:48:53;;;;;;;3.58;2.60;;;;;;;15.94;100.00;100910.78;5034859;28;20025;-82
2023/10/13 02:51:35;;;;;;;5.73;3.30;;;;;;;15.96;100.00;100898.50;5035091;28;20028;-82
2023/10/13 02:54:02;;;;;;;3.35;2.70;;;;;;;15.96;100.00;100898.50;5035203;28;20021;-82
2023/10/13 02:56:29;;;;;;;5.32;3.10;;;;;;;15.95;100.00;100892.41;5034160;28;20052;-83
2023/10/13 02:58:56;;;;;;;5.50;3.35;;;;;;;15.99;100.00;100887.91;5035345;28;20022;-82
2023/10/13 03:01:27;;;;;;;4.55;3.17;;;;;;;15.98;100.00;100878.38;5034743;28;20044;-82
2023/10/13 03:03:54;;;;;;;3.78;3.10;;;;;;;15.98;100.00;100867.91;5035109;28;20032;-82
2023/10/13 03:06:24;;;;;;;4.43;3.15;;;;;;;16.00;100.00;100872.16;5034539;28;20087;-82
2023/10/13 03:08:51;;;;;;;4.60;3.13;;;;;;;16.02;100.00;100865.09;5034063;28;20025;-82
2023/10/13 03:11:26;;;;;;;5.07;3.35;;;;;;;16.00;100.00;100853.84;5034752;28;20041;-82
2023/10/13 03:13:52;;;;;;;3.83;2.92;;;;;;;15.99;100.00;100840.78;5034775;28;20488;-82
2023/10/13 03:16:19;;;;;;;8.93;4.50;;;;;;;16.01;100.00;100842.44;5033668;28;20075;-82
2023/10/13 03:18:56;;;;;;;6.82;3.90;;;;;;;16.02;100.00;100845.91;5034734;28;20041;-81
2023/10/13 03:21:29;;;;;;;5.78;3.40;;;;;;;16.02;100.00;100836.31;5034163;28;20029;-82
2023/10/13 03:24:04;;;;;;;4.65;3.30;;;;;;;16.02;100.00;100824.97;5034081;28;20029;-81
2023/10/13 03:26:34;;;;;;;5.28;3.40;;;;;;;16.06;100.00;100827.41;5034890;28;20041;-82
2023/10/13 03:29:07;;;;;;;6.68;4.10;;;;;;;16.04;100.00;100823.16;5034949;28;20029;-82
2023/10/13 03:31:36;;;;;;;4.85;3.35;;;;;;;16.05;100.00;100824.84;5033734;28;20034;-82
2023/10/13 03:34:03;;;;;;;8.93;4.57;;;;;;;16.06;100.00;100813.47;5034847;28;20022;-83
2023/10/13 03:39:13;;;;;;;6.80;4.03;;;;;;;16.10;100.00;100801.94;5034476;28;20037;-82
2023/10/13 03:41:39;;;;;;;7.00;4.20;;;;;;;16.12;100.00;100784.44;5034435;28;20025;-81
2023/10/13 03:44:09;;;;;;;7.75;4.43;;;;;;;16.13;100.00;100795.78;5033312;28;20095;-81
2023/10/13 03:46:37;;;;;;;5.80;3.90;;;;;;;16.12;100.00;100783.59;5034104;28;20036;-82
2023/10/13 03:49:06;;;;;;;5.70;3.40;;;;;;;16.15;100.00;100778.25;5034096;28;20459;-82
2023/10/13 03:51:31;;;;;;;7.03;3.75;;;;;;;16.15;100.00;100773.00;5033157;28;20473;-82
2023/10/13 03:53:58;;;;;;;9.00;4.90;;;;;;;16.18;100.00;100770.25;5034357;28;20025;-82
2023/10/13 03:56:28;;;;;;;6.15;4.07;;;;;;;16.21;100.00;100772.75;5033842;28;20029;-82
2023/10/13 03:59:05;;;;;;;9.85;4.90;;;;;;;16.24;100.00;100774.38;5033350;28;20028;-82
2023/10/13 04:04:29;;;;;;;8.85;5.00;;;;;;;16.25;100.00;100758.63;5034240;28;20040;-82
2023/10/13 04:07:13;;;;;;;14.25;6.75;;;;;;;16.27;100.00;100745.47;5033261;28;20078;-82
2023/10/13 04:17:26;;;;;;;14.67;7.47;;;;;;;16.35;100.00;100727.66;5033506;28;20026;-82
2023/10/13 04:31:11;;;;;;;12.93;6.35;;;;;;;16.39;100.00;100726.63;5033383;28;20060;-82
2023/10/13 04:36:36;;;;;;;13.77;6.68;;;;;;;16.42;100.00;100718.66;5033611;28;20033;-82
2023/10/13 04:41:37;;;;;;;11.95;6.25;;;;;;;16.47;100.00;100721.06;5032570;28;20048;-83
2023/10/13 04:49:28;;;;;;;9.67;5.70;;;;;;;16.52;100.00;100706.00;5031820;28;20132;-83
2023/10/13 04:51:59;;;;;;;9.57;5.68;;;;;;;16.54;100.00;100709.41;5033128;28;20037;-83
2023/10/13 04:54:45;;;;;;;12.07;5.90;;;;;;;16.53;100.00;100705.09;5031851;28;20466;-82
2023/10/13 06:29:38;;;;;;;7.85;3.90;;;;;;;16.67;100.00;100613.66;5015477;28;20562;-81
2023/10/13 06:32:10;;;;;;;6.13;3.57;;;;;;;16.68;100.00;100609.25;5015420;28;20097;-81
2023/10/13 06:34:45;;;;;;;6.38;3.58;;;;;;;16.68;100.00;100607.50;5014889;28;20076;-81
2023/10/13 06:37:23;;;;;;;7.60;4.28;;;;;;;16.67;100.00;100599.69;5015407;28;20033;-82
2023/10/13 06:40:06;;;;;;;7.00;4.00;;;;;;;16.68;100.00;100590.91;5015251;28;20467;-83
2023/10/13 06:42:34;;;;;;;8.15;4.10;;;;;;;16.68;100.00;100586.53;5015761;28;20030;-82
2023/10/13 06:45:03;;;;;;;7.68;3.83;;;;;;;16.70;100.00;100586.44;5015835;28;20486;-82
2023/10/13 06:47:28;;;;;;;6.13;3.50;;;;;;;16.68;100.00;100575.19;5014934;28;20061;-82
2023/10/13 06:49:56;;;;;;;7.93;3.63;;;;;;;16.71;100.00;100575.06;5015915;28;20058;-81
2023/10/13 06:52:22;;;;;;;11.32;4.43;;;;;;;16.70;100.00;100570.72;5015565;28;20026;-81
2023/10/13 06:54:50;;;;;;;8.30;4.05;;;;;;;16.70;100.00;100568.09;5014800;28;20423;-81
2023/10/13 06:57:20;;;;;;;8.75;4.38;;;;;;;16.71;100.00;100569.81;5014853;28;20419;-81
2023/10/13 06:59:46;;;;;;;5.97;3.50;;;;;;;16.72;100.00;100565.44;5015294;28;20105;-81
2023/10/13 07:02:33;;;;;;;9.27;4.05;;;;;;;16.73;100.00;100567.09;5013854;28;20152;-81
2023/10/13 07:05:07;;;;;;;7.28;3.63;;;;;;;16.73;100.00;100556.63;5015670;28;20057;-82
2023/10/13 07:07:33;;;;;;;5.95;3.42;;;;;;;16.73;100.00;100552.25;5015590;28;20028;-81
2023/10/13 07:09:58;;;;;;;5.65;3.55;;;;;;;16.77;100.00;100550.34;5014673;28;20434;-82
2023/10/13 07:12:26;;;;;;;6.60;3.77;;;;;;;16.77;100.00;100548.59;5015098;28;20076;-83
2023/10/13 07:14:52;;;;;;;6.65;3.53;;;;;;;16.78;100.00;100536.31;5014312;28;20029;-82
2023/10/13 07:17:23;;;;;;;6.28;3.47;;;;;;;16.80;100.00;100537.09;5014555;28;20037;-82
2023/10/13 07:20:13;;;;;;;7.30;3.58;;;;;;;16.83;100.00;100539.59;5028246;28;20119;-83
2023/10/13 07:22:39;;;;;;;14.00;4.68;;;;;;;16.85;100.00;100524.63;5032967;28;20029;-83
2023/10/13 07:25:06;;;;;;;7.57;3.97;;;;;;;16.85;100.00;100521.16;5034125;28;20095;-82
2023/10/13 07:27:35;;;;;;;;;;;;;;;16.89;100.00;100522.72;5035253;28;20371;-83
2023/10/13 07:30:13;;;;;;;7.57;4.00;;;;;;;16.94;100.00;100523.38;5033912;28;20277;-83
2023/10/13 07:32:45;;;;;;;9.20;4.35;;;;;;;16.96;100.00;100521.53;5034799;28;20033;-83
2023/10/13 07:35:15;;;;;;;11.70;4.78;;;;;;;16.98;100.00;100517.91;5034271;28;20026;-82
2023/10/13 07:37:41;;;;;;;9.80;4.50;;;;;;;17.03;100.00;100515.06;5033640;28;20393;-83
2023/10/13 07:40:27;;;;;;;9.83;4.63;;;;;;;17.07;100.00;100515.75;5033991;28;20030;-82
2023/10/13 07:43:00;;;;;;;;;;;;;;;17.11;100.00;100512.09;5034170;28;20041;-82
2023/10/13 07:45:38;;;;;;;12.15;4.63;;;;;;;17.10;100.00;100513.00;5034147;28;19992;-83
2023/10/13 07:48:20;;;;;;;9.27;4.32;;;;;;;17.24;100.00;100513.19;5034105;28;20040;-82
2023/10/13 07:51:04;;;;;;;13.63;5.00;;;;;;;17.28;100.00;100514.72;5033203;28;20029;-82
2023/10/13 07:53:40;;;;;;;12.38;4.60;;;;;;;17.33;100.00;100522.41;5034184;28;20028;-83
2023/10/13 07:56:07;;;;;;;8.05;4.18;;;;;;;17.38;100.00;100509.91;5033951;28;20045;-82
2023/10/13 07:58:34;;;;;;;6.43;3.63;;;;;;;17.41;100.00;100514.13;5033263;28;20083;-81
2023/10/13 08:03:44;;;;;;;9.37;4.23;;;;;;;17.42;100.00;100503.59;5034003;28;20036;-83
2023/10/13 08:08:38;;;;;;;11.73;4.28;;;;;;;17.47;100.00;100499.88;5023281;28;20038;-83
2023/10/13 08:16:52;;;;;;;11.43;4.65;;;;;;;17.59;100.00;100496.63;5014558;28;20044;-83
2023/10/13 08:19:32;;;;;;;15.65;5.45;;;;;;;17.63;100.00;100486.81;5025677;28;20402;-82
2023/10/13 08:21:59;;;;;;;10.52;4.95;;;;;;;17.68;100.00;100493.53;5033687;28;20029;-83
2023/10/13 08:35:10;;;;;;;8.55;4.28;;;;;;;18.04;100.00;100495.22;5033181;28;20113;-82
2023/10/13 08:37:55;;;;;;;13.18;5.30;;;;;;;18.10;100.00;100477.47;5032952;28;20088;-83
2023/10/13 08:40:43;;;;;;;11.13;4.88;;;;;;;18.12;100.00;100481.69;5032650;28;20363;-83
2023/10/13 08:43:11;;;;;;;12.57;5.25;;;;;;;18.14;100.00;100471.09;5033347;28;20059;-83
2023/10/13 08:48:15;;;;;;;8.47;4.40;;;;;;;18.26;100.00;100482.75;5030348;28;20040;-84
2023/10/13 08:50:52;;;;;;;9.88;5.00;;;;;;;18.29;100.00;100480.81;5031067;28;20295;-77
2023/10/13 08:53:32;;;;;;;11.90;4.80;;;;;;;18.32;100.00;100479.78;5030906;28;20022;-76
2023/10/13 09:06:46;;;;;;;9.20;4.40;;;;;;;18.40;100.00;100451.34;5032507;28;20053;-79
2023/10/13 09:09:26;;;;;;;9.55;4.80;;;;;;;18.44;100.00;100463.38;5031376;28;20025;-80
2023/10/13 09:12:04;;;;;;;9.68;4.63;;;;;;;18.45;100.00;100451.91;5033040;28;20065;-79
2023/10/13 09:14:33;;;;;;;11.73;4.88;;;;;;;18.46;100.00;100450.16;5032295;28;20360;-79
2023/10/13 09:19:56;;;;;;;15.25;5.30;;;;;;;18.52;100.00;100450.66;5032456;28;20137;-79
2023/10/13 09:22:35;;;;;;;8.68;4.70;;;;;;;18.57;100.00;100454.81;5031566;28;20033;-79
2023/10/13 09:25:02;;;;;;;7.35;4.22;;;;;;;18.60;100.00;100462.53;5032458;28;20531;-79
2023/10/13 09:27:32;;;;;;;8.73;4.38;;;;;;;18.63;100.00;100454.50;5032651;28;20027;-81
2023/10/13 09:30:18;;;;;;;8.32;4.10;;;;;;;18.62;100.00;100453.63;5031860;28;20030;-80
2023/10/13 09:32:46;;;;;;;6.97;4.13;;;;;;;18.63;100.00;100446.59;5032842;28;20025;-84
2023/10/13 09:35:17;;;;;;;10.30;4.50;;;;;;;18.60;100.00;100437.09;5032265;28;20056;-83
2023/10/13 09:37:46;;;;;;;12.40;4.90;;;;;;;18.62;100.00;100440.47;5032224;28;20108;-82
2023/10/13 09:40:33;;;;;;;11.88;4.95;;;;;;;18.67;100.00;100446.34;5032193;28;20057;-81
2023/10/13 09:43:07;;;;;;;9.80;4.30;;;;;;;18.74;100.00;100444.22;5031395;28;20025;-80
2023/10/13 09:45:39;;;;;;;10.48;4.95;;;;;;;18.75;100.00;100431.91;5035562;28;20376;-86
2023/10/13 09:48:21;;;;;;;10.88;5.00;;;;;;;18.88;100.00;100446.06;5036306;28;20033;-86
2023/10/13 09:50:51;;;;;;;10.98;4.75;;;;;;;18.93;100.00;100438.78;5035793;28;20108;-87
2023/10/13 09:53:18;;;;;;;12.73;5.38;;;;;;;18.92;100.00;100431.78;5036156;28;20037;-77
2023/10/13 09:56:23;;;;;;;11.45;4.85;;;;;;;18.93;100.00;100430.91;5033753;28;20033;-82
2023/10/13 09:59:10;;;;;;;11.95;4.90;;;;;;;18.94;100.00;100418.63;5016131;28;20026;-81
2023/10/13 10:01:50;;;;;;;11.25;4.70;;;;;;;19.04;100.00;100424.16;5016434;28;20033;-82
2023/10/13 10:04:18;;;;;;;12.80;5.05;;;;;;;19.12;100.00;100420.16;5015511;28;20100;-82
2023/10/13 10:06:53;;;;;;;10.68;4.80;;;;;;;19.23;100.00;100429.22;5016355;28;20018;-82
2023/10/13 10:09:21;;;;;;;14.52;5.30;;;;;;;19.28;100.00;100412.22;5016061;28;20487;-82
2023/10/13 10:12:21;;;;;;;10.25;4.63;;;;;;;19.31;100.00;100400.66;5015415;28;20386;-82
2023/10/13 10:15:43;;;;;;;9.95;4.53;;;;;;;19.29;100.00;100408.66;5029404;28;20030;-82
2023/10/13 10:18:19;;;;;;;12.07;5.20;;;;;;;19.23;100.00;100405.53;5034855;28;20041;-82
2023/10/13 10:20:47;;;;;;;12.73;5.82;;;;;;;19.20;100.00;100403.94;5035918;28;20033;-82
2023/10/13 10:23:25;;;;;;;10.00;4.82;;;;;;;19.22;100.00;100402.06;5035790;28;20021;-82
2023/10/13 10:25:51;;;;;;;11.73;4.85;;;;;;;19.19;100.00;100404.88;5034094;28;20037;-82
2023/10/13 10:28:17;;;;;;;11.00;5.03;;;;;;;19.12;100.00;100387.78;5035365;28;20537;-81
2023/10/13 10:30:43;;;;;;;14.20;5.40;;;;;;;19.12;100.00;100391.25;5035261;28;20041;-82
2023/10/13 10:33:13;;;;;;;;;;;;;;;19.16;100.00;100393.69;5034917;28;20478;-83
2023/10/13 10:35:40;;;;;;;10.57;5.07;;;;;;;19.17;100.00;100382.25;5035180;28;20280;-83
2023/10/13 10:38:16;;;;;;;11.27;4.95;;;;;;;19.19;100.00;100378.56;5035163;28;20029;-81
2023/10/13 10:41:06;;;;;;;10.63;4.90;;;;;;;19.24;100.00;100383.56;5034522;28;20528;-81
2023/10/13 10:43:45;;;;;;;11.10;4.90;;;;;;;19.22;98.91;100382.81;5035550;28;20276;-81
2023/10/13 10:46:15;;;;;;;12.05;5.32;;;;;;;19.26;100.00;100377.25;5034225;28;20478;-81
2023/10/13 10:48:44;;;;;;;13.07;5.00;;;;;;;19.30;99.89;100399.00;5034534;28;20030;-81
2023/10/13 10:51:22;;;;;;;12.90;5.47;;;;;;;19.35;98.91;100390.84;5034536;28;20029;-82
2023/10/13 10:53:50;;;;;;;13.55;5.30;;;;;;;19.35;99.88;100385.56;5034331;28;20033;-83
2023/10/13 10:56:19;;;;;;;10.00;4.85;;;;;;;19.35;100.00;100390.84;5033118;28;20386;-83
2023/10/13 10:58:54;;;;;;;11.77;5.57;;;;;;;19.32;100.00;100380.47;5034650;28;20025;-82
2023/10/13 11:01:23;;;;;;;11.63;5.20;;;;;;;19.35;100.00;100381.13;5033860;28;20030;-86
2023/10/13 11:04:14;;;;;;;11.15;4.95;;;;;;;19.40;100.00;100396.66;5034940;28;20108;-83
2023/10/13 11:06:47;;;;;;;9.30;4.60;;;;;;;19.45;100.00;100389.34;5034779;28;20029;-84
2023/10/13 11:09:21;;;;;;;9.05;4.65;;;;;;;19.49;100.00;100390.84;5034530;28;20033;-80
2023/10/13 11:11:46;;;;;;;6.88;4.10;;;;;;;19.56;100.00;100381.66;5034902;28;20033;-84
2023/10/13 11:14:25;;;;;;;11.23;4.80;;;;;;;19.63;99.77;100370.72;5033555;28;20024;-83
2023/10/13 11:16:59;;;;;;;10.60;5.30;;;;;;;19.67;100.00;100359.91;5034050;28;20742;-84
2023/10/13 11:19:36;;;;;;;9.45;4.47;;;;;;;19.72;100.00;100352.59;5034106;28;20489;-83
2023/10/13 11:25:03;;;;;;;12.02;4.88;;;;;;;19.77;98.39;100352.31;5034889;28;20097;-84
2023/10/13 11:27:55;;;;;;;11.32;4.78;;;;;;;19.79;98.97;100345.16;5034464;28;20478;-84
2023/10/13 11:30:20;;;;;;;9.18;4.75;;;;;;;19.81;97.89;100339.78;5033702;28;20037;-84
2023/10/13 11:33:06;;;;;;;11.90;4.97;;;;;;;19.88;97.35;100317.44;5029372;28;20144;-82
2023/10/13 11:38:28;;;;;;;16.25;5.75;;;;;;;20.00;94.38;100310.56;5024248;28;20403;-84
2023/10/13 11:43:31;;;;;;;13.53;5.13;;;;;;;20.13;95.57;100300.94;5033587;28;20033;-85
2023/10/13 11:48:36;;;;;;;10.52;5.07;;;;;;;20.24;92.78;100294.13;5034451;28;20048;-83
2023/10/13 11:51:06;;;;;;;12.73;5.00;;;;;;;20.32;94.30;100291.84;5032994;28;20041;-83
2023/10/13 11:53:32;;;;;;;10.63;5.10;;;;;;;20.34;92.22;100290.78;5034069;28;20025;-82
2023/10/13 11:55:58;;;;;;;13.43;5.13;;;;;;;20.36;90.62;100291.53;5032918;28;20378;-81
2023/10/13 11:58:23;;;;;;;15.03;5.53;;;;;;;20.37;90.17;100281.84;5033590;28;20038;-83
2023/10/13 12:00:53;;;;;;;14.27;5.40;;;;;;;20.36;89.62;100277.53;5033335;28;20060;-84
2023/10/13 12:06:18;;;;;;;14.45;5.72;;;;;;;20.46;89.68;100275.97;5034148;28;20099;-83
2023/10/13 12:08:49;;;;;;;17.25;6.00;;;;;;;20.50;89.03;100271.34;5033858;28;20032;-84
2023/10/13 12:11:30;;;;;;;13.68;5.70;;;;;;;20.53;88.78;100261.44;5032788;28;20056;-84
2023/10/13 12:13:57;;;;;;;13.48;5.03;;;;;;;20.61;91.28;100274.09;5032388;28;20529;-84
2023/10/13 12:16:22;;;;;;;11.27;5.10;;;;;;;20.65;91.46;100272.97;5033544;28;20104;-84
2023/10/13 12:18:53;;;;;;;13.83;5.30;;;;;;;20.71;89.10;100271.72;5037990;28;20167;-81
2023/10/13 12:21:21;;;;;;;13.50;5.78;;;;;;;20.76;89.66;100264.34;5053254;28;20025;-84
2023/10/13 12:23:50;;;;;;;13.27;5.40;;;;;;;20.85;90.39;100260.25;5048405;28;20024;-83
2023/10/13 12:26:19;;;;;;;13.20;5.60;;;;;;;20.88;87.67;100265.31;5032149;28;20068;-84
2023/10/13 12:28:51;;;;;;;11.57;5.30;;;;;;;20.94;88.20;100256.16;5033601;28;20466;-83
2023/10/13 12:31:17;;;;;;;10.55;4.57;;;;;;;21.00;89.84;100262.78;5032322;28;20029;-83
2023/10/13 12:33:47;;;;;;;16.88;5.90;;;;;;;21.03;85.78;100266.06;5033491;28;20036;-83
2023/10/13 12:49:48;;;;;;;15.50;5.53;;;;;;;21.02;85.59;100253.81;5033247;28;20405;-84
2023/10/13 12:52:20;;;;;;;14.05;5.22;;;;;;;21.02;84.11;100250.31;5031878;28;20034;-85
2023/10/13 12:54:58;;;;;;;12.35;5.03;;;;;;;21.04;86.27;100244.00;5032837;28;20037;-83
2023/10/13 12:57:27;;;;;;;11.70;5.20;;;;;;;21.04;86.80;100249.28;5032998;28;20029;-93
2023/10/13 12:59:54;;;;;;;14.48;4.70;;;;;;;21.01;84.41;100246.84;5032764;28;20018;-85
2023/10/13 13:02:24;;;;;;;12.48;5.00;;;;;;;21.00;82.57;100249.59;5033019;28;20609;-81
2023/10/13 13:05:05;;;;;;;13.30;5.32;;;;;;;21.04;84.66;100249.28;5032610;28;20539;-85
2023/10/13 13:07:31;;;;;;;13.48;4.97;;;;;;;21.04;82.87;100244.00;5032175;28;20044;-85
2023/10/13 13:09:59;;;;;;;12.38;5.00;;;;;;;21.07;81.72;100250.88;5032865;28;20108;-85
2023/10/13 13:12:28;;;;;;;12.57;4.82;;;;;;;21.08;82.09;100257.81;5032518;28;20091;-84
2023/10/13 13:14:54;;;;;;;14.30;5.00;;;;;;;21.11;83.21;100245.25;5031986;28;20025;-84
2023/10/13 13:17:23;;;;;;;13.27;4.65;;;;;;;21.11;78.71;100242.63;5032223;28;20422;-85
2023/10/13 13:19:48;;;;;;;12.45;4.60;;;;;;;21.11;82.80;100232.06;5031834;28;20099;-85
2023/10/13 13:22:14;;;;;;;13.13;4.77;;;;;;;21.08;81.24;100231.44;5031184;28;20037;-85
2023/10/13 13:24:43;;;;;;;8.37;4.23;;;;;;;21.08;81.02;100242.84;5032681;28;20109;-85
2023/10/13 13:27:19;;;;;;;14.50;4.80;;;;;;;21.09;80.69;100233.97;5032319;28;20367;-85
2023/10/13 13:29:45;;;;;;;;;;;;;;;21.11;79.50;100232.06;5032246;28;20087;-85
2023/10/13 13:32:23;;;;;;;11.07;4.60;;;;;;;21.13;80.05;100237.22;5032894;28;19917;-85
2023/10/13 13:34:58;;;;;;;11.95;4.40;;;;;;;21.13;78.89;100224.91;5032209;28;20056;-85
2023/10/13 13:37:27;;;;;;;11.93;4.47;;;;;;;21.10;79.66;100248.84;5031596;28;20026;-85
2023/10/13 13:39:52;;;;;;;12.05;4.47;;;;;;;21.11;77.77;100232.06;5031704;28;20433;-84
2023/10/13 13:42:18;;;;;;;12.43;4.40;;;;;;;21.05;78.48;100227.25;5024938;28;20035;-84
2023/10/13 13:44:46;;;;;;;12.70;4.30;;;;;;;20.99;78.61;100225.00;5031463;28;20509;-83
2023/10/13 13:47:14;;;;;;;10.18;4.10;;;;;;;20.96;76.73;100233.13;5027441;28;20520;-83
2023/10/13 13:49:40;;;;;;;14.25;4.55;;;;;;;20.89;79.05;100223.97;5023227;28;20172;-83
2023/10/13 13:52:07;;;;;;;9.68;4.10;;;;;;;20.82;79.98;100208.56;5023846;28;20096;-85
2023/10/13 13:54:32;;;;;;;10.50;4.35;;;;;;;20.80;78.73;100213.09;5014659;28;20113;-84
2023/10/13 13:56:58;;;;;;;11.17;4.17;;;;;;;20.85;80.03;100218.06;5012158;28;20112;-90
2023/10/13 13:59:23;;;;;;;11.47;4.40;;;;;;;20.82;77.81;100219.13;5017793;28;20160;-87
2023/10/13 14:02:19;;;;;;;11.53;4.10;;;;;;;20.79;79.42;100214.03;5043035;28;20048;-91
2023/10/13 14:05:02;;;;;;;14.25;4.45;;;;;;;20.82;79.75;100215.63;5032569;28;20021;-89
2023/10/13 14:07:32;;;;;;;9.35;4.03;;;;;;;20.77;80.08;100196.66;5029062;28;20048;-90
2023/10/13 14:10:30;;;;;;;9.15;3.95;;;;;;;20.77;79.81;100205.38;5026224;28;20064;-86
2023/10/13 14:13:14;;;;;;;10.40;4.15;;;;;;;20.75;79.93;100202.00;5023824;28;20049;-88
2023/10/13 14:15:43;;;;;;;9.98;3.90;;;;;;;20.74;79.04;100207.38;5032964;28;20423;-88
2023/10/13 14:18:17;;;;;;;7.85;3.60;;;;;;;20.81;80.48;100220.06;5031897;28;20024;-89
2023/10/13 14:20:43;;;;;;;7.60;3.63;;;;;;;20.79;81.13;100224.59;5032521;28;20072;-85
2023/10/13 14:23:11;;;;;;;10.87;3.90;;;;;;;20.77;79.20;100210.66;5032320;28;20053;-89
2023/10/13 14:25:58;;;;;;;7.55;3.50;;;;;;;20.85;81.04;100218.06;5032047;28;20017;-88
2023/10/13 14:28:23;;;;;;;11.98;4.32;;;;;;;20.82;79.88;100205.94;5032335;28;20036;-92
2023/10/13 14:31:12;;;;;;;12.17;4.53;;;;;;;20.88;77.62;100220.50;5033454;28;20116;-89
2023/10/13 14:33:39;;;;;;;10.63;4.13;;;;;;;20.85;76.17;100209.28;5036708;28;20430;-88
2023/10/13 14:36:04;;;;;;;11.57;4.40;;;;;;;20.94;76.89;100229.78;5035513;28;20028;-87
2023/10/13 14:38:44;;;;;;;9.20;4.10;;;;;;;20.95;79.11;100215.59;5034535;28;20025;-88
2023/10/13 14:41:09;;;;;;;10.82;4.20;;;;;;;20.98;78.60;100218.03;5021007;28;20044;-90
2023/10/13 14:43:35;;;;;;;9.20;3.90;;;;;;;20.91;76.26;100211.50;5016779;28;20530;-90
2023/10/13 14:46:00;;;;;;;9.23;3.53;;;;;;;20.90;78.36;100217.72;5016590;28;20466;-89
2023/10/13 14:48:39;;;;;;;10.48;4.07;;;;;;;20.90;79.20;100217.72;5030758;28;20026;-90
2023/10/13 14:51:09;;;;;;;8.50;3.75;;;;;;;20.89;79.57;100224.78;5035429;28;20030;-89
2023/10/13 14:53:34;;;;;;;7.55;3.67;;;;;;;20.85;80.86;100225.09;5036072;28;20032;-90
2023/10/13 14:56:19;;;;;;;9.73;4.07;;;;;;;20.83;79.27;100227.84;5035526;28;20029;-90
2023/10/13 14:58:44;;;;;;;9.02;3.70;;;;;;;20.79;79.28;100231.63;5035994;28;20026;-89
2023/10/13 15:01:29;;;;;;;9.63;3.80;;;;;;;20.69;76.55;100231.41;5034761;28;20025;-89
2023/10/13 15:03:58;;;;;;;10.43;4.40;;;;;;;20.62;80.27;100215.16;5035823;28;20104;-89